»·PEaware :: N953AS KAJO-KVCV

N953AS :: KAJO-KVCV

FLIGHT INFORMATION

Flight Status: Arrived
Operator: Privately registered:
United States
More flights under this callsign
Pilot: Alexander S. (31851)
Aircraft: SOCATA TBM-900
(TBM9)
More flights by this aircraft type
Origin: KAJO Corona Mun
United States
Destination: KVCV Socal Logistics
United States
More flights between these airports :: More routes between these airports
Route: PDZ V442 APLES
File this flight plan on PilotEdge
Remarks:
Altitude:
(Current/Filed)
11,000ft
Speed:
(Current/Filed)
246kts
Departed: 08-Nov-20 08:32 AM
Arrived: 08-Nov-20 09:21 AM
Distance/Time
Traveled:
43nm/0:49
Distance/Time
To Go:
Arrived

Flight Plot

Page will automatically refresh every two minutes.


Map Options




Map Legend


Flown Route
Filed Route
Departure Airport
Arrival Airport
Navaid (VOR, NDB)
Fix

Horizontal Profiles

Position Reports

Time Latitude Longitude Heading Altitude Ground
Speed
08-Nov-20 08:14 33.897058 -117.598316 93 535ft 0kts
08-Nov-20 08:15 33.897058 -117.598316 93 535ft 0kts
08-Nov-20 08:16 33.897058 -117.598316 93 535ft 0kts
08-Nov-20 08:17 33.897058 -117.598316 93 535ft 0kts
08-Nov-20 08:18 33.897058 -117.598316 93 535ft 0kts
08-Nov-20 08:19 33.897058 -117.598316 93 535ft 0kts
08-Nov-20 08:20 33.897058 -117.598316 93 535ft 0kts
08-Nov-20 08:21 33.897058 -117.598316 93 535ft 0kts
08-Nov-20 08:22 33.897058 -117.598316 93 535ft 0kts
08-Nov-20 08:23 33.897058 -117.598316 93 535ft 0kts
08-Nov-20 08:24 33.897058 -117.598316 93 535ft 0kts
08-Nov-20 08:25 33.897058 -117.598316 93 535ft 0kts
08-Nov-20 08:26 33.897058 -117.598316 93 535ft 0kts
08-Nov-20 08:27 33.897058 -117.598316 93 535ft 0kts
08-Nov-20 08:28 33.897058 -117.598316 93 535ft 0kts
08-Nov-20 08:29 33.897242 -117.597105 311 537ft 0kts
08-Nov-20 08:30 33.897246 -117.597109 307 537ft 1kts
08-Nov-20 08:31 33.897600 -117.608720 265 672ft 112kts
08-Nov-20 08:32 33.908492 -117.618050 107 3220ft 122kts
08-Nov-20 08:33 33.907977 -117.564702 67 4041ft 204kts
08-Nov-20 08:34 33.941075 -117.506268 28 4469ft 208kts
08-Nov-20 08:35 33.991678 -117.493797 62 5873ft 205kts
08-Nov-20 08:36 33.956394 -117.471186 235 6022ft 226kts
08-Nov-20 08:37 33.919090 -117.530977 224 6011ft 232kts
08-Nov-20 08:38 33.946248 -117.574744 23 6003ft 237kts
08-Nov-20 08:39 33.997764 -117.525876 42 6003ft 238kts
08-Nov-20 08:40 33.996449 -117.467262 166 6508ft 213kts
08-Nov-20 08:41 33.948438 -117.498875 224 8556ft 216kts
08-Nov-20 08:42 33.922265 -117.562837 303 8990ft 261kts
08-Nov-20 08:43 33.981495 -117.547050 61 9015ft 274kts
08-Nov-20 08:44 34.021730 -117.470989 39 9105ft 273kts
08-Nov-20 08:45 34.088260 -117.428214 29 9178ft 274kts
08-Nov-20 08:46 34.154138 -117.381925 28 9181ft 274kts
08-Nov-20 08:47 34.223569 -117.341188 28 9188ft 279kts
08-Nov-20 08:48 34.289511 -117.302135 26 9166ft 244kts
08-Nov-20 08:49 34.348252 -117.267642 25 9174ft 233kts
08-Nov-20 08:50 34.406292 -117.233463 25 9181ft 231kts
08-Nov-20 08:51 34.464055 -117.199373 25 9183ft 231kts
08-Nov-20 08:52 34.518254 -117.167382 25 9151ft 186kts
08-Nov-20 08:53 34.563224 -117.147618 3 8518ft 171kts
08-Nov-20 08:54 34.609182 -117.144947 355 7509ft 162kts
08-Nov-20 08:55 34.651471 -117.155062 347 6817ft 142kts
08-Nov-20 08:56 34.692086 -117.176819 330 6812ft 168kts
08-Nov-20 08:57 34.730464 -117.209965 312 6795ft 172kts
08-Nov-20 08:58 34.759151 -117.248011 301 6768ft 130kts
08-Nov-20 08:59 34.775518 -117.283641 297 6742ft 112kts
08-Nov-20 09:00 34.787606 -117.321842 280 5864ft 117kts
08-Nov-20 09:01 34.788323 -117.359085 230 5412ft 109kts
08-Nov-20 09:03 34.765551 -117.379996 195 4910ft 106kts
08-Nov-20 09:04 34.735089 -117.383759 182 4544ft 115kts
08-Nov-20 09:05 34.703164 -117.385152 183 4484ft 110kts
08-Nov-20 09:06 34.675457 -117.386368 183 4118ft 103kts
08-Nov-20 09:07 34.647978 -117.387202 181 3429ft 96kts
08-Nov-20 09:08 34.599933 -117.385840 180 4016ft 212kts
08-Nov-20 09:09 34.584675 -117.433014 307 5900ft 219kts
08-Nov-20 09:10 34.628687 -117.493489 296 6178ft 252kts
08-Nov-20 09:11 34.634297 -117.578549 272 6185ft 258kts
08-Nov-20 09:12 34.649928 -117.663371 283 6180ft 256kts
08-Nov-20 09:13 34.610166 -117.716112 167 6174ft 249kts
08-Nov-20 09:14 34.578280 -117.645871 103 6188ft 251kts
08-Nov-20 09:15 34.564380 -117.562880 101 6175ft 252kts
08-Nov-20 09:16 34.550828 -117.482274 102 5285ft 244kts
08-Nov-20 09:16 34.561177 -117.421744 33 4518ft 242kts
08-Nov-20 09:18 34.631621 -117.408575 9 3896ft 182kts
08-Nov-20 09:18 34.623144 -117.386822 182 3091ft 113kts
08-Nov-20 09:20 34.599352 -117.386576 179 2860ft 42kts
08-Nov-20 09:20 34.594882 -117.384866 89 2864ft 0kts
08-Nov-20 09:22 34.593274 -117.382051 134 2866ft 19kts
08-Nov-20 09:22 34.590250 -117.378341 134 2873ft 16kts
08-Nov-20 09:23 34.588988 -117.375620 58 2867ft 0kts
08-Nov-20 09:24 34.588988 -117.375620 58 2867ft 0kts

Navigation Log

Ident Type
Flight plan parsing failed, navigation log unavailable